• Join FlightAware (Why Join?)
  • Login
  • US Flag 
05:22PM EDT


 

Airport Tracker/Info


-or-


 

Live Flight TrackerFlight Track Log ✈ BJS612 ✈ 27-Jun-2013 ✈ KCVX - KSWF

Flight Track Log - Related Links

Times and Time Zones

All times are in EDT time to prevent confusion due to time zone crossing. See the BJS612 flight status page for this flight to view local times or setup timezone preferences in your user account.

Time Position Orientation Groundspeed Altitude Reporting Facility
EDT Latitude Longitude Course Direction KTS MPH feet Rate Location/Type
10:59AM 45.2558 -85.2786 122° Southeast 218 251 4,000  Level Minneapolis Center
11:00AM 45.2264 -85.1906 115° Southeast 239 275 4,600 600 Climbing Minneapolis Center
11:01AM 45.1736 -85.1272 140° Southeast 256 295 5,300 2,100 Climbing Minneapolis Center
11:02AM 45.0886 -85.1058 170° South 259 298 9,000 3,360 Climbing Minneapolis Center
11:03AM 45.0133 -85.0833 168° South 266 306 12,300 3,060 Climbing Minneapolis Center
11:05AM 44.9508 -84.4812 122° Southeast  Level FlightAware Approximate
11:05AM 44.9361 -85.0606 168° South 272 313 15,400  Level Minneapolis Center
11:06AM 44.8342 -85.0361 170° South 335 386 15,800 240 Climbing Minneapolis Center
11:07AM 44.7333 -85.0314 178° South 362 417 15,900 240 Climbing Minneapolis Center
11:08AM 44.6350 -85.0831 201° Southwest 375 432 16,400 1,200 Climbing Minneapolis Center
11:09AM 44.5311 -85.0500 167° South 411 473 18,400 1,200 Climbing Minneapolis Center
11:10AM 44.4467 -84.8781 124° Southeast 443 510 19,000 240 Climbing Minneapolis Center
11:11AM 44.4442 -84.7022 91° East 451 519 18,900 240 Descending Minneapolis Center
11:12AM 44.4450 -84.5175 90° East 453 521 19,500 960 Climbing Minneapolis Center
11:13AM 44.4467 -84.3536 89° East 434 499 20,900 2,100 Climbing Minneapolis Center
11:14AM 44.4783 -84.2078 73° East 416 479 23,900 3,060 Climbing Minneapolis Center
11:15AM 44.4978 -84.0439 81° East 425 489 27,300 2,820 Climbing Minneapolis Center
11:16AM 44.4856 -83.8425 95° East 433 498 29,800 1,980 Climbing Minneapolis Center
11:17AM 44.4689 -83.6703 98° East 441 507 31,500 1,500 Climbing Minneapolis Center
11:18AM 44.4567 -83.4867 95° East 457 526 33,000 1,440 Climbing Minneapolis Center
11:19AM 44.4383 -83.3014 98° East 470 541 34,600 1,380 Climbing Minneapolis Center
11:20AM 44.4033 -83.1181 105° East 480 552 35,900 1,080 Climbing Minneapolis Center
11:21AM 44.3597 -82.9083 106° East 476 548 36,900 660 Climbing Minneapolis Center
11:22AM 44.3228 -82.7347 107° East 471 542 37,300 1,080 Climbing Minneapolis Center
11:23AM 44.2833 -82.5667 108° East 470 541 39,100 1,560 Climbing Toronto Center
11:24AM 44.2500 -82.4000 106° East 460 529 40,400 900 Climbing Toronto Center
11:25AM 44.2000 -82.2167 111° Southeast 460 529 41,000 300 Climbing Toronto Center
11:26AM 44.1667 -82.0500 106° East 470 541 41,000  Level Toronto Center
11:27AM 44.1333 -81.8667 104° East 480 552 41,000  Level Toronto Center
11:28AM 44.1000 -81.6833 104° East 480 552 41,000  Level Toronto Center
11:29AM 44.0500 -81.4833 109° East 480 552 41,000  Level Toronto Center
11:30AM 44.0167 -81.3333 107° East 480 552 41,000  Level Toronto Center
11:31AM 43.9833 -81.1667 105° East 470 541 41,000  Level Toronto Center
11:32AM 43.9333 -80.9833 111° Southeast 480 552 41,000  Level Toronto Center
11:33AM 43.9167 -80.7833 97° East 480 552 41,000  Level Toronto Center
11:34AM 43.8833 -80.6333 107° East 480 552 41,000  Level Toronto Center
11:35AM 43.8333 -80.4500 111° Southeast 480 552 41,000  Level Toronto Center
11:36AM 43.8000 -80.2833 105° East 480 552 41,000  Level Toronto Center
11:37AM 43.7667 -80.1000 104° East 470 541 41,000  Level Toronto Center
11:38AM 43.7167 -79.9333 112° Southeast 470 541 41,000  Level Toronto Center
11:40AM 43.6500 -79.5667 104° East 480 552 41,000  Level Toronto Center
11:41AM 43.6333 -79.3833 97° East 480 552 41,000  Level Toronto Center
11:42AM 43.6167 -79.2167 98° East 470 541 41,000  Level Toronto Center
11:43AM 43.6000 -79.0333 97° East 470 541 41,000 -540 Level Toronto Center
11:44AM 43.6000 -78.8500 90° East 480 552 40,000 -1,260 Descending Toronto Center
11:45AM 43.5500 -78.6833 112° Southeast 470 541 38,500 -1,560 Descending Toronto Center
11:46AM 43.4833 -78.5333 121° Southeast 450 518 36,900 -1,560 Descending Toronto Center
11:47AM 43.4167 -78.4000 125° Southeast 450 518 35,400 -1,560 Descending Toronto Center
11:48AM 43.3936 -78.2692 104° East 447 514 34,100 -1,260 Descending Cleveland Center
11:49AM 43.3361 -78.1028 115° Southeast 453 521 33,100 -600 Descending Cleveland Center
11:50AM 43.2783 -77.9428 116° Southeast 463 533 33,000 -600 Descending Cleveland Center
11:51AM 43.2244 -77.7769 114° Southeast 468 539 32,000 -1,080 Descending Cleveland Center
11:52AM 43.1642 -77.6117 117° Southeast 474 545 30,900 -1,080 Descending Cleveland Center
11:54AM 43.0167 -77.2167 117° Southeast 490 564 28,700 -1,020 Descending Toronto Center
11:55AM 42.9667 -77.0667 114° Southeast 490 564 27,700 -900 Descending Toronto Center
11:56AM 42.9000 -76.9000 119° Southeast 480 552 27,000 -360 Descending Toronto Center
11:57AM 42.8500 -76.7500 114° Southeast 480 552 27,000  Level Toronto Center
11:58AM 42.7833 -76.5833 119° Southeast 470 541 27,000  Level Toronto Center
11:59AM 42.7333 -76.4333 114° Southeast 470 541 27,000  Level Toronto Center
12:00PM 42.6667 -76.2500 116° Southeast 470 541 27,000 -300 Level Toronto Center
12:01PM 42.6000 -76.1000 121° Southeast 480 552 26,500 -1,560 Descending Toronto Center
12:02PM 42.5500 -75.9500 114° Southeast 460 529 23,900 -2,580 Descending Toronto Center
12:03PM 42.5125 -75.8289 113° Southeast 452 520 21,200 -2,460 Descending Boston Center
12:04PM 42.4600 -75.6936 118° Southeast 426 490 18,800 -2,280 Descending Boston Center
12:05PM 42.4078 -75.5558 117° Southeast 408 470 16,700 -2,040 Descending Boston Center
12:06PM 42.3592 -75.4242 117° Southeast 402 463 14,800 -1,920 Descending Boston Center
12:07PM 42.3081 -75.3011 119° Southeast 396 456 12,900 -1,800 Descending Boston Center
12:08PM 42.2572 -75.1611 116° Southeast 384 442 11,300 -960 Descending Boston Center
12:09PM 42.2097 -75.0583 122° Southeast 377 434 11,000 -180 Descending Boston Center
12:10PM 42.1497 -74.9464 126° Southeast 370 426 11,000  Level Boston Center
12:11PM 42.0753 -74.8233 129° Southeast 360 414 11,000 -420 Level Boston Center
12:13PM 41.9833 -74.6500 125° Southeast 352 405 9,900 -1,020 Descending New York TRACON
12:14PM 41.9333 -74.5500 124° Southeast 289 333 8,300 -1,260 Descending New York TRACON
12:15PM 41.8667 -74.4833 143° Southeast 274 315 7,300 -1,080 Descending New York TRACON
12:16PM 41.8167 -74.4167 135° Southeast 277 319 6,200 -1,020 Descending New York TRACON
12:17PM 41.7500 -74.3667 151° Southeast 266 306 5,300 -1,080 Descending New York TRACON
12:18PM 41.7000 -74.3000 135° Southeast 258 297 4,100 -660 Descending New York TRACON
12:19PM 41.6333 -74.2333 143° Southeast 242 278 4,000 -60 Descending New York TRACON
12:20PM 41.5833 -74.2000 153° Southeast 235 270 4,000 -540 Level New York TRACON
12:21PM 41.5500 -74.1500 132° Southeast 212 244 3,000 -1,080 Descending New York TRACON
12:22PM 41.5000 -74.1667 194° South 187 215 1,900 -840 Descending New York TRACON
12:23PM 41.4833 -74.1667 180° South 182 209 1,400 -540 Descending New York TRACON
12:25PM 41.5000 -74.1000 153° Southeast  Level FlightAware Approximate